createdAt,value
2019-03-01T00:00:52.309Z,98503.89
2019-03-01T00:03:18.613Z,98499.19
2019-03-01T00:06:09.488Z,98485.84
2019-03-01T00:09:05.301Z,98489.14
2019-03-01T00:11:46.772Z,98480.84
2019-03-01T00:14:19.448Z,98476.45
2019-03-01T00:17:01.288Z,98475.23
2019-03-01T00:19:46.121Z,98474.97
2019-03-01T00:22:25.271Z,98469.82
2019-03-01T00:24:57.872Z,98468.45
2019-03-01T00:27:39.705Z,98473.83
2019-03-01T00:30:36.361Z,98451.89
2019-03-01T00:33:15.528Z,98451.44
2019-03-01T00:35:54.266Z,98458.58
2019-03-01T00:38:58.075Z,98454.55
2019-03-01T00:41:33.871Z,98452.69
2019-03-01T00:44:19.826Z,98450.59
2019-03-01T00:46:45.986Z,98444.30
2019-03-01T00:49:12.260Z,98437.77
2019-03-01T00:51:38.483Z,98430.45
2019-03-01T00:54:04.650Z,98430.61
2019-03-01T00:56:30.934Z,98414.70
2019-03-01T00:58:57.295Z,98428.67
2019-03-01T01:01:23.556Z,98419.80
2019-03-01T01:03:49.834Z,98416.85
2019-03-01T01:06:16.139Z,98421.92
2019-03-01T01:08:42.399Z,98419.73
2019-03-01T01:11:08.558Z,98418.08
2019-03-01T01:13:34.877Z,98421.31
2019-03-01T01:16:01.014Z,98423.75
2019-03-01T01:18:27.190Z,98416.22
2019-03-01T01:20:53.495Z,98419.23
2019-03-01T01:23:19.769Z,98406.44
2019-03-01T01:25:45.935Z,98408.16
2019-03-01T01:28:12.285Z,98409.78
2019-03-01T01:30:38.554Z,98406.42
2019-03-01T01:33:04.741Z,98408.33
2019-03-01T01:35:31.029Z,98411.62
2019-03-01T01:37:57.286Z,98410.23
2019-03-01T01:40:23.558Z,98408.73
2019-03-01T01:42:49.768Z,98408.03
2019-03-01T01:45:16.076Z,98411.94
2019-03-01T01:47:42.322Z,98414.89
2019-03-01T01:50:08.627Z,98418.03
2019-03-01T01:52:34.900Z,98417.91
2019-03-01T01:55:01.077Z,98410.03
2019-03-01T01:57:27.301Z,98424.51
2019-03-01T01:59:53.518Z,98407.17
2019-03-01T02:02:19.807Z,98411.98
2019-03-01T02:04:46.098Z,98410.67
2019-03-01T02:07:12.265Z,98408.16
2019-03-01T02:09:38.935Z,98412.65
2019-03-01T02:12:05.237Z,98406.83
2019-03-01T02:14:31.401Z,98411.97
2019-03-01T02:16:57.671Z,98420.30
2019-03-01T02:19:23.985Z,98414.48
2019-03-01T02:21:50.250Z,98421.88
2019-03-01T02:24:16.427Z,98414.95
2019-03-01T02:26:42.733Z,98422.17
2019-03-01T02:29:09.332Z,98417.50
2019-03-01T02:31:36.551Z,98420.25
2019-03-01T02:34:02.843Z,98425.38
2019-03-01T02:36:29.020Z,98434.32
2019-03-01T02:38:55.179Z,98438.81
2019-03-01T02:41:21.488Z,98443.39
2019-03-01T02:43:47.774Z,98428.48
2019-03-01T02:46:13.946Z,98433.44
2019-03-01T02:48:40.238Z,98436.44
2019-03-01T02:51:06.402Z,98434.46
2019-03-01T02:53:32.572Z,98440.63
2019-03-01T02:55:58.993Z,98437.36
2019-03-01T02:58:25.265Z,98440.60
2019-03-01T03:00:51.555Z,98435.53
2019-03-01T03:03:17.749Z,98443.53
2019-03-01T03:05:52.052Z,98436.53
2019-03-01T03:08:18.212Z,98446.30
2019-03-01T03:10:44.407Z,98448.74
2019-03-01T03:13:10.689Z,98446.80
2019-03-01T03:15:39.777Z,98440.24
2019-03-01T03:18:05.996Z,98435.61
2019-03-01T03:20:32.257Z,98450.98
2019-03-01T03:22:58.540Z,98448.05
2019-03-01T03:25:24.777Z,98446.59
2019-03-01T03:27:50.919Z,98457.17
2019-03-01T03:30:18.606Z,98465.12
2019-03-01T03:32:44.913Z,98461.16
2019-03-01T03:35:11.121Z,98459.89
2019-03-01T03:37:37.349Z,98461.94
2019-03-01T03:40:07.272Z,98464.55
2019-03-01T03:42:33.425Z,98465.91
2019-03-01T03:44:59.588Z,98468.23
2019-03-01T03:47:25.943Z,98454.84
2019-03-01T03:49:52.200Z,98462.50
2019-03-01T03:52:18.376Z,98464.25
2019-03-01T03:54:44.684Z,98468.03
2019-03-01T03:57:10.956Z,98470.55
2019-03-01T03:59:37.120Z,98476.32
2019-03-01T04:02:03.512Z,98471.98
2019-03-01T04:04:29.778Z,98471.45
2019-03-01T04:06:55.966Z,98478.77
2019-03-01T04:09:22.262Z,98472.55
2019-03-01T04:11:48.546Z,98471.98
2019-03-01T04:14:14.850Z,98482.59
2019-03-01T04:16:41.064Z,98478.28
2019-03-01T04:19:07.341Z,98473.95
2019-03-01T04:21:33.617Z,98478.31
2019-03-01T04:23:59.844Z,98477.21
2019-03-01T04:26:26.096Z,98483.53
2019-03-01T04:28:52.377Z,98494.77
2019-03-01T04:31:18.555Z,98497.63
2019-03-01T04:33:44.827Z,98493.27
2019-03-01T04:36:11.109Z,98500.92
2019-03-01T04:38:37.318Z,98510.17
2019-03-01T04:41:03.492Z,98507.71
2019-03-01T04:43:29.773Z,98518.03
2019-03-01T04:45:55.981Z,98508.27
2019-03-01T04:48:22.251Z,98510.48
2019-03-01T04:50:48.539Z,98519.41
2019-03-01T04:53:14.838Z,98528.17
2019-03-01T04:55:41.106Z,98511.34
2019-03-01T04:58:07.390Z,98534.38
2019-03-01T05:00:33.701Z,98528.47
2019-03-01T05:02:59.979Z,98533.75
2019-03-01T05:05:26.149Z,98545.13
2019-03-01T05:07:52.468Z,98543.20
2019-03-01T05:10:18.752Z,98545.36
2019-03-01T05:12:45.025Z,98552.59
2019-03-01T05:15:14.655Z,98567.63
2019-03-01T05:17:41.058Z,98560.00
2019-03-01T05:20:07.355Z,98567.00
2019-03-01T05:22:33.634Z,98565.45
2019-03-01T05:24:59.802Z,98579.65
2019-03-01T05:27:26.072Z,98580.43
2019-03-01T05:29:52.616Z,98580.41
2019-03-01T05:32:18.866Z,98588.97
2019-03-01T05:34:45.141Z,98579.66
2019-03-01T05:37:11.455Z,98589.34
2019-03-01T05:39:37.634Z,98591.16
2019-03-01T05:42:03.828Z,98584.32
2019-03-01T05:44:30.144Z,98591.09
2019-03-01T05:46:56.342Z,98596.23
2019-03-01T05:49:22.504Z,98602.52
2019-03-01T05:51:48.808Z,98603.17
2019-03-01T05:54:15.076Z,98600.92
2019-03-01T05:56:41.340Z,98611.01
2019-03-01T05:59:16.202Z,98621.78
2019-03-01T06:01:46.073Z,98618.78
2019-03-01T06:04:23.576Z,98612.37
2019-03-01T06:07:05.392Z,98612.39
2019-03-01T06:09:38.318Z,98614.34
2019-03-01T06:14:57.100Z,98624.81
2019-03-01T06:17:32.361Z,98618.52
2019-03-01T06:20:02.286Z,98630.59
2019-03-01T06:22:41.024Z,98629.16
2019-03-01T06:25:20.049Z,98629.79
2019-03-01T06:28:08.120Z,98633.66
2019-03-01T06:30:40.684Z,98642.68
2019-03-01T06:33:28.360Z,98640.86
2019-03-01T06:36:02.966Z,98660.34
2019-03-01T06:39:04.697Z,98643.22
2019-03-01T06:42:06.175Z,98639.92
2019-03-01T06:44:38.812Z,98641.05
2019-03-01T06:47:20.300Z,98607.36
2019-03-01T06:49:48.407Z,98647.98
2019-03-01T06:52:15.189Z,98646.65
2019-03-01T06:54:41.404Z,98655.38
2019-03-01T06:57:07.584Z,98653.49
2019-03-01T06:59:33.874Z,98656.87
2019-03-01T07:02:00.186Z,98659.40
2019-03-01T07:04:26.501Z,98659.95
2019-03-01T07:06:52.663Z,98647.69
2019-03-01T07:09:18.981Z,98653.00
2019-03-01T07:11:45.242Z,98673.09
2019-03-01T07:14:11.440Z,98653.96
2019-03-01T07:16:37.736Z,98667.83
2019-03-01T07:19:04.016Z,98667.87
2019-03-01T07:21:30.194Z,98656.14
2019-03-01T07:23:56.414Z,98657.84
2019-03-01T07:26:22.778Z,98668.01
2019-03-01T07:28:49.058Z,98676.84
2019-03-01T07:31:15.364Z,98678.94
2019-03-01T07:33:41.658Z,98676.73
2019-03-01T07:36:08.003Z,98663.74
2019-03-01T07:38:34.221Z,98677.59
2019-03-01T07:41:00.492Z,98672.54
2019-03-01T07:43:26.764Z,98681.00
2019-03-01T07:45:53.165Z,98695.68
2019-03-01T07:48:19.325Z,98704.59
2019-03-01T07:50:45.910Z,98670.52
2019-03-01T07:53:12.212Z,98682.57
2019-03-01T07:55:38.378Z,98688.27
2019-03-01T07:58:04.660Z,98685.19
2019-03-01T08:00:30.856Z,98675.23
2019-03-01T08:02:57.186Z,98679.66
2019-03-01T08:05:23.455Z,98674.74
2019-03-01T08:07:56.086Z,98686.29
2019-03-01T08:10:22.538Z,98681.56
2019-03-01T08:12:47.438Z,98678.21
2019-03-01T08:15:15.119Z,98682.36
2019-03-01T08:17:41.277Z,98663.51
2019-03-01T08:20:10.451Z,98670.56
2019-03-01T08:22:47.472Z,98683.58
2019-03-01T08:25:07.025Z,98689.87
2019-03-01T08:27:33.312Z,98691.14
2019-03-01T08:29:59.506Z,98680.27
2019-03-01T08:32:27.462Z,98677.39
2019-03-01T08:34:54.696Z,98681.86
2019-03-01T08:37:21.173Z,98679.78
2019-03-01T08:39:49.605Z,98687.09
2019-03-01T08:42:15.393Z,98699.53
2019-03-01T08:44:41.709Z,98707.19
2019-03-01T08:47:07.977Z,98698.69
2019-03-01T08:49:34.157Z,98704.10
2019-03-01T08:52:01.420Z,98688.19
2019-03-01T08:54:28.709Z,98683.89
2019-03-01T08:56:55.001Z,98687.55
2019-03-01T08:59:21.207Z,98681.90
2019-03-01T09:01:47.483Z,98658.59
2019-03-01T09:04:17.330Z,98687.48
2019-03-01T09:06:42.076Z,98677.54
2019-03-01T09:09:08.792Z,98681.87
2019-03-01T09:11:35.196Z,98669.94
2019-03-01T09:14:01.501Z,98677.87
2019-03-01T09:16:27.669Z,98665.48
2019-03-01T09:18:53.935Z,98681.58
2019-03-01T09:21:20.253Z,98680.19
2019-03-01T09:23:48.033Z,98684.76
2019-03-01T09:26:16.673Z,98677.07
2019-03-01T09:28:42.686Z,98678.06
2019-03-01T09:31:08.871Z,98679.44
2019-03-01T09:33:35.141Z,98667.64
2019-03-01T09:36:03.249Z,98656.97
2019-03-01T09:38:29.522Z,98668.42
2019-03-01T09:40:57.433Z,98664.27
2019-03-01T09:43:24.717Z,98669.55
2019-03-01T09:45:52.183Z,98661.77
2019-03-01T09:48:18.447Z,98663.99
2019-03-01T09:50:44.648Z,98659.62
2019-03-01T09:53:10.919Z,98637.20
2019-03-01T09:55:37.680Z,98652.16
2019-03-01T09:58:05.020Z,98646.28
2019-03-01T10:00:41.020Z,98637.64
2019-03-01T10:03:07.344Z,98648.05
2019-03-01T10:05:33.651Z,98638.84
2019-03-01T10:08:02.204Z,98628.70
2019-03-01T10:10:30.715Z,98633.42
2019-03-01T10:12:56.879Z,98641.77
2019-03-01T10:15:23.139Z,98645.94
2019-03-01T10:17:49.329Z,98638.69
2019-03-01T10:20:15.479Z,98641.63
2019-03-01T10:22:41.737Z,98633.77
2019-03-01T10:25:11.043Z,98630.06
2019-03-01T10:27:37.200Z,98627.12
2019-03-01T10:30:25.037Z,98618.64
2019-03-01T10:32:51.299Z,98613.09
2019-03-01T10:35:17.466Z,98626.28
2019-03-01T10:37:43.666Z,98602.72
2019-03-01T10:40:23.220Z,98614.77
2019-03-01T10:42:49.412Z,98608.02
2019-03-01T10:45:18.071Z,98617.02
2019-03-01T10:47:44.331Z,98606.87
2019-03-01T10:50:11.421Z,98601.50
2019-03-01T10:52:37.603Z,98603.69
2019-03-01T10:55:07.274Z,98602.49
2019-03-01T10:57:33.465Z,98595.48
2019-03-01T10:59:59.625Z,98596.41
2019-03-01T11:02:25.784Z,98601.04
2019-03-01T11:04:52.019Z,98603.12
2019-03-01T11:07:18.312Z,98598.53
2019-03-01T11:09:44.593Z,98601.42
2019-03-01T11:12:10.770Z,98594.75
2019-03-01T11:14:36.927Z,98590.08
2019-03-01T11:17:03.084Z,98587.70
2019-03-01T11:19:29.276Z,98572.77
2019-03-01T11:21:55.531Z,98575.63
2019-03-01T11:24:21.693Z,98562.59
2019-03-01T11:26:47.908Z,98562.38
2019-03-01T11:29:14.123Z,98565.86
2019-03-01T11:31:40.282Z,98572.86
2019-03-01T11:34:06.836Z,98559.27
2019-03-01T11:36:32.996Z,98565.33
2019-03-01T11:38:59.166Z,98541.64
2019-03-01T11:41:25.369Z,98554.52
2019-03-01T11:43:51.529Z,98546.42
2019-03-01T11:46:17.687Z,98559.42
2019-03-01T11:48:43.883Z,98553.67
2019-03-01T11:51:10.048Z,98549.67
2019-03-01T11:53:36.314Z,98550.73
2019-03-01T11:56:02.509Z,98559.89
2019-03-01T11:58:28.688Z,98553.75
2019-03-01T12:00:54.961Z,98559.50
2019-03-01T12:03:23.601Z,98555.84
2019-03-01T12:05:51.139Z,98551.17
2019-03-01T12:08:17.348Z,98552.09
2019-03-01T12:10:45.377Z,98568.98
2019-03-01T12:13:11.544Z,98550.89
2019-03-01T12:15:37.802Z,98555.19
2019-03-01T12:18:04.184Z,98546.55
2019-03-01T12:20:31.357Z,98549.53
2019-03-01T12:22:57.521Z,98539.88
2019-03-01T12:25:23.815Z,98542.87
2019-03-01T12:27:50.075Z,98533.95
2019-03-01T12:30:20.956Z,98539.16
2019-03-01T12:32:47.452Z,98543.42
2019-03-01T12:35:13.738Z,98537.14
2019-03-01T12:37:41.819Z,98532.28
2019-03-01T12:40:28.868Z,98531.92
2019-03-01T12:42:55.127Z,98527.05
2019-03-01T12:45:21.284Z,98533.86
2019-03-01T12:47:47.471Z,98514.13
2019-03-01T12:50:13.746Z,98525.04
2019-03-01T12:52:39.921Z,98523.01
2019-03-01T12:55:09.408Z,98511.86
2019-03-01T12:57:35.667Z,98508.23
2019-03-01T13:00:02.129Z,98506.82
2019-03-01T13:02:28.706Z,98478.45
2019-03-01T13:04:54.929Z,98503.64
2019-03-01T13:07:21.085Z,98501.63
2019-03-01T13:09:47.279Z,98485.17
2019-03-01T13:12:13.593Z,98492.06
2019-03-01T13:14:40.316Z,98486.27
2019-03-01T13:17:06.649Z,98479.81
2019-03-01T13:19:32.900Z,98486.23
2019-03-01T13:21:59.057Z,98480.41
2019-03-01T13:24:25.244Z,98466.97
2019-03-01T13:26:51.404Z,98465.81
2019-03-01T13:29:19.082Z,98469.16
2019-03-01T13:31:47.117Z,98476.64
2019-03-01T13:34:14.503Z,98455.00
2019-03-01T13:36:40.831Z,98455.55
2019-03-01T13:39:10.454Z,98452.82
2019-03-01T13:41:37.273Z,98465.98
2019-03-01T13:44:04.436Z,98447.69
2019-03-01T13:46:33.380Z,98457.03
2019-03-01T13:48:58.797Z,98467.50
2019-03-01T13:51:24.951Z,98455.00
2019-03-01T13:53:51.144Z,98450.32
2019-03-01T13:56:17.405Z,98456.40
2019-03-01T13:58:43.575Z,98453.97
2019-03-01T14:01:09.877Z,98468.87
2019-03-01T14:03:36.045Z,98457.62
2019-03-01T14:06:02.361Z,98456.93
2019-03-01T14:08:28.733Z,98465.37
2019-03-01T14:10:55.009Z,98454.95
2019-03-01T14:13:21.219Z,98454.12
2019-03-01T14:15:47.431Z,98450.13
2019-03-01T14:18:13.710Z,98453.09
2019-03-01T14:20:39.887Z,98444.98
2019-03-01T14:23:06.104Z,98440.66
2019-03-01T14:25:32.397Z,98452.23
2019-03-01T14:27:58.656Z,98446.53
2019-03-01T14:30:30.340Z,98449.44
2019-03-01T14:32:56.849Z,98449.14
2019-03-01T14:35:25.980Z,98447.50
2019-03-01T14:37:54.236Z,98444.12
2019-03-01T14:40:19.159Z,98447.22
2019-03-01T14:42:47.645Z,98429.69
2019-03-01T14:45:25.733Z,98439.06
2019-03-01T14:47:52.214Z,98437.55
2019-03-01T14:50:25.851Z,98432.30
2019-03-01T14:52:56.663Z,98438.19
2019-03-01T14:55:32.845Z,98429.13
2019-03-01T14:58:08.448Z,98439.77
2019-03-01T15:00:40.118Z,98433.16
2019-03-01T15:03:26.531Z,98437.92
2019-03-01T15:05:52.690Z,98443.11
2019-03-01T15:08:24.845Z,98441.45
2019-03-01T15:10:51.235Z,98449.06
2019-03-01T15:13:17.396Z,98445.61
2019-03-01T15:15:45.346Z,98450.44
2019-03-01T15:18:11.541Z,98455.03
2019-03-01T15:20:37.693Z,98459.23
2019-03-01T15:23:04.056Z,98463.30
2019-03-01T15:25:30.339Z,98473.24
2019-03-01T15:27:56.494Z,98473.17
2019-03-01T15:30:23.234Z,98468.97
2019-03-01T15:32:49.644Z,98482.56
2019-03-01T15:35:15.804Z,98475.41
2019-03-01T15:37:41.960Z,98481.35
2019-03-01T15:40:09.851Z,98487.47
2019-03-01T15:42:36.044Z,98480.06
2019-03-01T15:45:05.093Z,98481.16
2019-03-01T15:47:32.229Z,98475.63
2019-03-01T15:49:58.383Z,98488.23
2019-03-01T15:52:24.648Z,98480.17
2019-03-01T15:54:50.846Z,98481.42
2019-03-01T15:57:19.003Z,98480.30
2019-03-01T15:59:47.802Z,98480.03
2019-03-01T16:02:13.271Z,98483.08
2019-03-01T16:04:39.429Z,98485.43
2019-03-01T16:07:05.603Z,98481.66
2019-03-01T16:09:31.794Z,98487.35
2019-03-01T16:11:57.957Z,98490.77
2019-03-01T16:14:25.083Z,98496.33
2019-03-01T16:16:51.454Z,98503.17
2019-03-01T16:19:17.709Z,98517.03
2019-03-01T16:21:43.872Z,98512.46
2019-03-01T16:24:10.066Z,98500.47
2019-03-01T16:26:37.244Z,98513.03
2019-03-01T16:29:03.944Z,98507.61
2019-03-01T16:31:32.203Z,98513.45
2019-03-01T16:34:00.905Z,98512.23
2019-03-01T16:36:30.242Z,98510.55
2019-03-01T16:38:56.634Z,98526.21
2019-03-01T16:41:22.794Z,98523.03
2019-03-01T16:43:49.052Z,98521.70
2019-03-01T16:46:15.238Z,98518.22
2019-03-01T16:48:41.413Z,98515.75
2019-03-01T16:51:07.677Z,98526.69
2019-03-01T16:53:36.738Z,98532.54
2019-03-01T16:56:03.460Z,98535.58
2019-03-01T16:58:29.696Z,98534.77
2019-03-01T17:00:55.892Z,98530.81
2019-03-01T17:03:22.153Z,98541.98
2019-03-01T17:05:50.321Z,98547.86
2019-03-01T17:08:16.607Z,98544.20
2019-03-01T17:10:42.773Z,98546.20
2019-03-01T17:13:12.404Z,98534.97
2019-03-01T17:15:38.709Z,98549.36
2019-03-01T17:18:04.880Z,98549.74
2019-03-01T17:20:31.038Z,98553.08
2019-03-01T17:22:59.778Z,98553.70
2019-03-01T17:25:26.883Z,98548.23
2019-03-01T17:27:53.451Z,98552.00
2019-03-01T17:30:24.072Z,98554.86
2019-03-01T17:32:50.242Z,98546.40
2019-03-01T17:35:16.408Z,98548.33
2019-03-01T17:37:43.099Z,98553.80
2019-03-01T17:40:16.345Z,98557.81
2019-03-01T17:42:42.525Z,98554.17
2019-03-01T17:45:17.279Z,98552.24
2019-03-01T17:47:45.430Z,98554.99
2019-03-01T17:50:12.596Z,98554.56
2019-03-01T17:52:38.918Z,98556.69
2019-03-01T17:55:08.282Z,98558.80
2019-03-01T17:57:34.450Z,98559.25
2019-03-01T18:00:00.681Z,98560.11
2019-03-01T18:02:26.849Z,98565.17
2019-03-01T18:04:53.059Z,98558.61
2019-03-01T18:07:19.389Z,98560.70
2019-03-01T18:09:47.363Z,98560.73
2019-03-01T18:12:13.533Z,98568.79
2019-03-01T18:14:39.720Z,98561.38
2019-03-01T18:17:07.780Z,98570.52
2019-03-01T18:19:34.049Z,98559.36
2019-03-01T18:22:02.057Z,98561.66
2019-03-01T18:24:28.233Z,98563.55
2019-03-01T18:26:54.686Z,98561.94
2019-03-01T18:29:21.772Z,98569.09
2019-03-01T18:31:50.795Z,98569.91
2019-03-01T18:34:16.953Z,98566.27
2019-03-01T18:36:43.144Z,98567.80
2019-03-01T18:39:09.796Z,98573.61
2019-03-01T18:41:35.948Z,98578.31
2019-03-01T18:44:02.254Z,98575.65
2019-03-01T18:46:28.419Z,98578.14
2019-03-01T18:48:54.583Z,98574.89
2019-03-01T18:51:20.782Z,98580.80
2019-03-01T18:53:46.958Z,98591.53
2019-03-01T18:56:13.103Z,98585.58
2019-03-01T18:58:39.458Z,98589.59
2019-03-01T19:01:07.821Z,98596.59
2019-03-01T19:03:36.472Z,98600.13
2019-03-01T19:06:04.746Z,98598.71
2019-03-01T19:08:31.202Z,98592.84
2019-03-01T19:10:59.646Z,98596.00
2019-03-01T19:13:25.800Z,98598.70
2019-03-01T19:15:54.552Z,98607.59
2019-03-01T19:18:20.312Z,98606.56
2019-03-01T19:20:49.248Z,98614.57
2019-03-01T19:23:15.413Z,98610.92
2019-03-01T19:25:41.826Z,98613.42
2019-03-01T19:28:08.029Z,98609.77
2019-03-01T19:30:34.313Z,98614.95
2019-03-01T19:33:02.253Z,98615.45
2019-03-01T19:35:29.843Z,98618.52
2019-03-01T19:37:56.409Z,98619.08
2019-03-01T19:40:23.065Z,98617.06
2019-03-01T19:42:49.251Z,98631.23
2019-03-01T19:45:16.820Z,98620.61
2019-03-01T19:47:43.088Z,98635.42
2019-03-01T19:50:26.592Z,98637.47
2019-03-01T19:52:52.744Z,98624.88
2019-03-01T19:55:19.011Z,98630.70
2019-03-01T19:57:45.304Z,98627.96
2019-03-01T20:00:20.730Z,98625.55
2019-03-01T20:02:47.039Z,98637.09
2019-03-01T20:05:18.287Z,98640.05
2019-03-01T20:07:44.434Z,98628.42
2019-03-01T20:10:15.999Z,98635.75
2019-03-01T20:12:42.388Z,98631.56
2019-03-01T20:15:14.365Z,98631.71
2019-03-01T20:17:44.357Z,98634.78
2019-03-01T20:20:12.232Z,98635.69
2019-03-01T20:22:38.443Z,98633.38
2019-03-01T20:25:08.139Z,98632.72
2019-03-01T20:27:35.528Z,98637.31
2019-03-01T20:30:05.274Z,98636.23
2019-03-01T20:32:31.464Z,98638.60
2019-03-01T20:34:57.725Z,98640.41
2019-03-01T20:37:24.757Z,98651.39
2019-03-01T20:39:52.240Z,98650.14
2019-03-01T20:42:23.571Z,98649.50
2019-03-01T20:44:46.561Z,98648.14
2019-03-01T20:47:15.500Z,98648.30
2019-03-01T20:49:40.936Z,98640.42
2019-03-01T20:52:07.189Z,98643.91
2019-03-01T20:54:33.474Z,98639.92
2019-03-01T20:57:01.511Z,98636.30
2019-03-01T20:59:27.687Z,98631.63
2019-03-01T21:01:55.899Z,98640.07
2019-03-01T21:04:21.998Z,98637.46
2019-03-01T21:06:48.314Z,98626.53
2019-03-01T21:09:14.503Z,98641.89
2019-03-01T21:11:42.641Z,98651.16
2019-03-01T21:14:10.781Z,98654.92
2019-03-01T21:16:37.025Z,98653.84
2019-03-01T21:19:05.721Z,98651.91
2019-03-01T21:21:31.358Z,98651.10
2019-03-01T21:23:57.725Z,98651.63
2019-03-01T21:26:24.141Z,98655.67
2019-03-01T21:28:50.777Z,98647.52
2019-03-01T21:31:17.022Z,98651.59
2019-03-01T21:33:43.176Z,98646.41
2019-03-01T21:36:09.342Z,98637.39
2019-03-01T21:38:35.628Z,98641.85
2019-03-01T21:41:01.789Z,98636.48
2019-03-01T21:43:33.866Z,98634.80
2019-03-01T21:46:00.924Z,98630.19
2019-03-01T21:48:27.179Z,98622.63
2019-03-01T21:50:53.341Z,98629.09
2019-03-01T21:53:19.537Z,98633.08
2019-03-01T21:55:46.114Z,98626.59
2019-03-01T21:58:12.263Z,98634.20
2019-03-01T22:00:39.058Z,98619.26
2019-03-01T22:03:05.225Z,98616.14
2019-03-01T22:05:31.482Z,98622.73
2019-03-01T22:07:57.782Z,98614.77
2019-03-01T22:10:23.944Z,98610.80
2019-03-01T22:12:50.300Z,98607.27
2019-03-01T22:15:27.980Z,98608.11
2019-03-01T22:17:55.037Z,98610.35
2019-03-01T22:20:21.696Z,98612.33
2019-03-01T22:22:47.898Z,98606.11
2019-03-01T22:25:14.155Z,98607.44
2019-03-01T22:27:41.812Z,98608.45
2019-03-01T22:30:29.284Z,98611.28
2019-03-01T22:32:55.558Z,98610.61
2019-03-01T22:35:21.725Z,98615.18
2019-03-01T22:37:47.923Z,98615.45
2019-03-01T22:40:14.080Z,98614.55
2019-03-01T22:42:40.239Z,98621.45
2019-03-01T22:45:14.553Z,98632.50
2019-03-01T22:47:40.747Z,98621.98
2019-03-01T22:50:13.019Z,98627.73
2019-03-01T22:52:39.213Z,98630.64
2019-03-01T22:55:07.974Z,98632.22
2019-03-01T22:57:34.129Z,98633.33
2019-03-01T23:00:00.315Z,98629.30
2019-03-01T23:02:26.486Z,98631.20
2019-03-01T23:04:52.645Z,98626.34
2019-03-01T23:07:18.836Z,98632.08
2019-03-01T23:09:46.430Z,98627.84
2019-03-01T23:12:14.808Z,98628.29
2019-03-01T23:14:41.257Z,98631.06
2019-03-01T23:17:07.527Z,98634.07
2019-03-01T23:19:33.679Z,98635.41
2019-03-01T23:21:59.870Z,98649.00
2019-03-01T23:24:26.027Z,98638.20
2019-03-01T23:26:53.637Z,98645.02
2019-03-01T23:29:20.331Z,98652.91
2019-03-01T23:31:46.509Z,98650.05
2019-03-01T23:34:12.774Z,98649.13
2019-03-01T23:36:38.960Z,98640.09
2019-03-01T23:39:05.228Z,98645.03
2019-03-01T23:41:31.399Z,98645.78
2019-03-01T23:43:57.584Z,98643.83
2019-03-01T23:46:25.616Z,98643.66
2019-03-01T23:48:51.809Z,98644.28
2019-03-01T23:51:18.000Z,98640.43
2019-03-01T23:53:44.252Z,98640.38
2019-03-01T23:56:10.419Z,98636.03
2019-03-01T23:58:36.607Z,98629.43
